Time;durP1;ratioP1;P1;durP2;ratioP2;P2;SDS_P1;SDS_P2;PMS_P1;PMS_P2;Temp;Humidity;BMP_temperature;BMP_pressure;BME280_temperature;BME280_humidity;BME280_pressure;Samples;Min_cycle;Max_cycle;Signal;HPM_P1;HPM_P2
2023/12/06 00:00:44;;;;;;;;;;;;;;;-144.99;100.00;52635.63;4998295;28;19964;-73
2023/12/06 00:03:10;;;;;;;;;;;;;;;-144.99;100.00;52692.69;4999923;28;19956;-73
2023/12/06 00:05:39;;;;;;;;;;;;;;;-144.99;100.00;52653.97;5007338;28;19979;-72
2023/12/06 00:08:07;;;;;;;;;;;;;;;-144.99;100.00;52656.00;5001076;28;20008;-72
2023/12/06 00:10:33;;;;;;;;;;;;;;;-144.99;100.00;52668.22;5001909;28;19925;-73
2023/12/06 00:13:00;;;;;;;;;;;;;;;-144.99;100.00;52698.81;5001022;28;20012;-74
2023/12/06 00:15:27;;;;;;;;;;;;;;;-144.99;100.00;52700.84;5003411;28;20320;-73
2023/12/06 00:17:53;;;;;;;;;;;;;;;-144.99;100.00;52688.63;5002658;28;19926;-73
2023/12/06 00:20:20;;;;;;;;;;;;;;;-144.99;100.00;52635.63;5002648;28;20013;-73
2023/12/06 00:22:46;;;;;;;;;;;;;;;-144.99;100.00;52684.53;4997048;28;20050;-71
2023/12/06 00:25:14;;;;;;;;;;;;;;;-144.99;100.00;52647.84;5011865;28;19940;-72
2023/12/06 00:27:41;;;;;;;;;;;;;;;-144.99;100.00;52651.94;5002339;28;19926;-71
2023/12/06 00:30:08;;;;;;;;;;;;;;;-144.99;100.00;52672.31;5002074;28;19932;-73
2023/12/06 00:32:34;;;;;;;;;;;;;;;-144.99;100.00;52619.31;5004299;28;20016;-70
2023/12/06 00:35:00;;;;;;;;;;;;;;;-144.99;100.00;52639.69;4997872;28;19984;-73
2023/12/06 00:37:27;;;;;;;;;;;;;;;-144.99;100.00;52662.13;5000894;28;20016;-72
2023/12/06 00:39:53;;;;;;;;;;;;;;;-144.99;100.00;52639.69;5001400;28;19925;-72
2023/12/06 00:42:21;;;;;;;;;;;;;;;-144.99;100.00;52658.03;4994407;28;20350;-74
2023/12/06 00:44:48;;;;;;;;;;;;;;;-144.99;100.00;52639.69;5011257;28;20509;-74
2023/12/06 00:47:14;;;;;;;;;;;;;;;-144.99;100.00;52656.00;5003815;28;19937;-73
2023/12/06 00:49:41;;;;;;;;;;;;;;;-144.99;100.00;52676.38;4997747;28;20008;-72
2023/12/06 00:52:08;;;;;;;;;;;;;;;-144.99;100.00;52662.13;5004391;28;19961;-70
2023/12/06 00:54:34;;;;;;;;;;;;;;;-144.99;100.00;52668.22;4983815;28;20013;-72
2023/12/06 00:57:00;;;;;;;;;;;;;;;-144.99;100.00;52639.69;5002937;28;20020;-71
2023/12/06 00:59:28;;;;;;;;;;;;;;;-144.99;100.00;52668.22;4998103;28;19926;-70
2023/12/06 01:01:55;;;;;;;;;;;;;;;-144.99;100.00;52647.84;5005601;28;19925;-71
2023/12/06 01:04:21;;;;;;;;;;;;;;;-144.99;100.00;52662.13;5022451;28;20032;-71
2023/12/06 01:06:48;;;;;;;;;;;;;;;-144.99;100.00;52668.22;4998906;28;20336;-71
2023/12/06 01:09:14;;;;;;;;;;;;;;;-144.99;100.00;52680.47;4992384;28;20458;-74
2023/12/06 01:11:41;;;;;;;;;;;;;;;-144.99;100.00;52647.84;5009179;28;19956;-74
2023/12/06 01:14:07;;;;;;;;;;;;;;;-144.99;100.00;52645.81;5020808;28;19925;-77
2023/12/06 01:16:35;;;;;;;;;;;;;;;-144.99;100.00;52680.47;5032527;28;20167;-72
2023/12/06 01:19:02;;;;;;;;;;;;;;;-144.99;100.00;52670.28;5018159;28;19925;-77
2023/12/06 01:21:28;;;;;;;;;;;;;;;-144.99;100.00;52656.00;5019044;28;19949;-75
2023/12/06 01:23:55;;;;;;;;;;;;;;;-144.99;100.00;52643.78;5018325;28;19924;-76
2023/12/06 01:26:21;;;;;;;;;;;;;;;-144.99;100.00;52639.69;5024308;28;19965;-76
2023/12/06 01:28:48;;;;;;;;;;;;;;;-144.99;100.00;52651.94;5022785;28;19945;-75
2023/12/06 01:31:14;;;;;;;;;;;;;;;-144.99;100.00;52658.03;5024078;28;19929;-78
2023/12/06 01:33:42;;;;;;;;;;;;;;;-144.99;100.00;52676.38;5018528;28;19920;-75
2023/12/06 01:36:08;;;;;;;;;;;;;;;-144.99;100.00;52692.69;5022282;28;20001;-76
2023/12/06 01:38:35;;;;;;;;;;;;;;;-144.99;100.00;52656.00;5021009;28;19921;-76
2023/12/06 01:41:02;;;;;;;;;;;;;;;-144.99;100.00;52631.53;5022713;28;19930;-75
2023/12/06 01:43:28;;;;;;;;;;;;;;;-144.99;100.00;52670.28;5030529;28;19932;-76
2023/12/06 01:45:54;;;;;;;;;;;;;;;-144.99;100.00;52660.09;5031101;28;19953;-74
2023/12/06 01:48:22;;;;;;;;;;;;;;;-144.99;100.00;52656.00;5019573;28;20037;-76
2023/12/06 01:50:51;;;;;;;;;;;;;;;-144.99;100.00;52639.69;5019782;28;19913;-74
2023/12/06 01:53:18;;;;;;;;;;;;;;;-144.99;100.00;52651.94;5022386;28;19941;-74
2023/12/06 01:55:45;;;;;;;;;;;;;;;-144.99;100.00;52639.69;5020465;28;19922;-75
2023/12/06 01:58:11;;;;;;;;;;;;;;;-144.99;100.00;52611.16;5020286;28;19930;-73
2023/12/06 02:00:38;;;;;;;;;;;;;;;-144.99;100.00;52643.78;5001002;28;20020;-72
2023/12/06 02:03:05;;;;;;;;;;;;;;;-144.99;100.00;52656.00;4996198;28;20368;-73
2023/12/06 02:05:31;;;;;;;;;;;;;;;-144.99;100.00;52668.22;5018107;28;19972;-73
2023/12/06 02:07:59;;;;;;;;;;;;;;;-144.99;100.00;52651.94;5031606;28;19925;-73
2023/12/06 02:10:26;;;;;;;;;;;;;;;-144.99;100.00;52651.94;5028737;28;19925;-75
2023/12/06 02:12:52;;;;;;;;;;;;;;;-144.99;100.00;52656.00;5019962;28;19994;-73
2023/12/06 02:15:19;;;;;;;;;;;;;;;-144.99;100.00;52590.78;5022855;28;19910;-74
2023/12/06 02:17:45;;;;;;;;;;;;;;;-144.99;100.00;52668.22;5025495;28;19936;-76
2023/12/06 02:20:12;;;;;;;;;;;;;;;-144.99;100.00;52631.53;5019492;28;19925;-76
2023/12/06 02:22:39;;;;;;;;;;;;;;;-144.99;100.00;52635.63;5024100;28;19967;-74
2023/12/06 02:25:11;;;;;;;;;;;;;;;-144.99;100.00;52651.94;5029642;28;19921;-75
2023/12/06 02:27:40;;;;;;;;;;;;;;;-144.99;100.00;52668.22;5027584;28;19921;-74
2023/12/06 02:30:07;;;;;;;;;;;;;;;-144.99;100.00;52666.19;5019686;28;19926;-76
2023/12/06 02:32:33;;;;;;;;;;;;;;;-144.99;100.00;52694.72;5021036;28;19930;-75
2023/12/06 02:35:01;;;;;;;;;;;;;;;-144.99;100.00;52647.84;5017479;28;19989;-74
2023/12/06 02:37:28;;;;;;;;;;;;;;;-144.99;100.00;52619.31;5021672;28;19950;-74
2023/12/06 02:39:55;;;;;;;;;;;;;;;-144.99;100.00;52656.00;5016814;28;20393;-74
2023/12/06 02:42:23;;;;;;;;;;;;;;;-144.99;100.00;52668.22;5010147;28;19926;-75
2023/12/06 02:44:49;;;;;;;;;;;;;;;-144.99;100.00;52680.47;5022283;28;19957;-74
2023/12/06 02:47:16;;;;;;;;;;;;;;;-144.99;100.00;52623.38;5023581;28;19929;-75
2023/12/06 02:49:43;;;;;;;;;;;;;;;-144.99;100.00;52625.44;5027394;28;19913;-75
2023/12/06 02:52:09;;;;;;;;;;;;;;;-144.99;100.00;52647.84;5009368;28;20033;-72
2023/12/06 02:54:35;;;;;;;;;;;;;;;-144.99;100.00;52660.09;5000817;28;19977;-72
2023/12/06 02:57:02;;;;;;;;;;;;;;;-144.99;100.00;52664.16;5000784;28;20010;-71
2023/12/06 02:59:30;;;;;;;;;;;;;;;-144.99;100.00;52645.81;5005703;28;19926;-73
2023/12/06 03:01:56;;;;;;;;;;;;;;;-144.99;100.00;52684.53;5002652;28;20020;-72
2023/12/06 03:04:23;;;;;;;;;;;;;;;-144.99;100.00;52647.84;5003276;28;19996;-72
2023/12/06 03:06:49;;;;;;;;;;;;;;;-144.99;100.00;52660.09;5000457;28;19979;-72
2023/12/06 03:09:15;;;;;;;;;;;;;;;-144.99;100.00;52635.63;5000307;28;19980;-73
2023/12/06 03:11:42;;;;;;;;;;;;;;;-144.99;100.00;52649.88;5007068;28;19933;-72
2023/12/06 03:14:08;;;;;;;;;;;;;;;-144.99;100.00;52656.00;5016184;28;19952;-73
2023/12/06 03:16:36;;;;;;;;;;;;;;;-144.99;100.00;52643.78;5026796;28;19940;-73
2023/12/06 03:19:03;;;;;;;;;;;;;;;-144.99;100.00;52662.13;5007705;28;19930;-72
2023/12/06 03:21:29;;;;;;;;;;;;;;;-144.99;100.00;52680.47;4999161;28;19989;-73
2023/12/06 03:23:56;;;;;;;;;;;;;;;-144.99;100.00;52678.44;5005247;28;20402;-73
2023/12/06 03:26:22;;;;;;;;;;;;;;;-144.99;100.00;52629.50;5003184;28;20020;-74
2023/12/06 03:28:48;;;;;;;;;;;;;;;-144.99;100.00;52647.84;4998162;28;19968;-74
2023/12/06 03:31:15;;;;;;;;;;;;;;;-144.99;100.00;52635.63;5002134;28;19999;-72
2023/12/06 03:33:43;;;;;;;;;;;;;;;-144.99;100.00;52660.09;4998765;28;19926;-71
2023/12/06 03:36:10;;;;;;;;;;;;;;;-144.99;100.00;52651.94;5004334;28;20377;-72
2023/12/06 03:38:37;;;;;;;;;;;;;;;-144.99;100.00;52611.16;5006970;28;19984;-72
2023/12/06 03:41:03;;;;;;;;;;;;;;;-144.99;100.00;52635.63;4999579;28;19973;-70
2023/12/06 03:43:30;;;;;;;;;;;;;;;-144.99;100.00;52676.38;4998533;28;20486;-69
2023/12/06 03:45:56;;;;;;;;;;;;;;;-144.99;100.00;52649.88;5005003;28;19987;-71
2023/12/06 03:48:22;;;;;;;;;;;;;;;-144.99;100.00;52660.09;5004618;28;20025;-70
2023/12/06 03:50:50;;;;;;;;;;;;;;;-144.99;100.00;52645.81;5002093;28;19960;-71
2023/12/06 03:53:17;;;;;;;;;;;;;;;-144.99;100.00;52643.78;5005615;28;19925;-72
2023/12/06 03:55:43;;;;;;;;;;;;;;;-144.99;100.00;52623.38;5025572;28;19948;-72
2023/12/06 03:58:10;;;;;;;;;;;;;;;-144.99;100.00;52674.34;5001471;28;20024;-72
2023/12/06 04:00:36;;;;;;;;;;;;;;;-144.99;100.00;52645.81;5005760;28;20592;-71
2023/12/06 04:03:03;;;;;;;;;;;;;;;-144.99;100.00;52660.09;4995580;28;19972;-71
2023/12/06 04:05:29;;;;;;;;;;;;;;;-144.99;100.00;52623.38;5011622;28;19925;-71
2023/12/06 04:07:57;;;;;;;;;;;;;;;-144.99;100.00;52639.69;4997461;28;19969;-70
2023/12/06 04:10:24;;;;;;;;;;;;;;;-144.99;100.00;52643.78;5007134;28;19965;-71
2023/12/06 04:12:50;;;;;;;;;;;;;;;-144.99;100.00;52684.53;4998626;28;20460;-71
2023/12/06 04:15:16;;;;;;;;;;;;;;;-144.99;100.00;52639.69;5008110;28;20409;-71
2023/12/06 04:17:43;;;;;;;;;;;;;;;-144.99;100.00;52692.69;5001549;28;19988;-74
2023/12/06 04:20:10;;;;;;;;;;;;;;;-144.99;100.00;52662.13;5001138;28;20698;-73
2023/12/06 04:22:37;;;;;;;;;;;;;;;-144.99;100.00;52635.63;5007062;28;19956;-72
2023/12/06 04:25:05;;;;;;;;;;;;;;;-144.99;100.00;52684.53;5010977;28;19979;-75
2023/12/06 04:27:31;;;;;;;;;;;;;;;-144.99;100.00;52678.44;5021422;28;19949;-75
2023/12/06 04:29:58;;;;;;;;;;;;;;;-144.99;100.00;52647.84;5004039;28;19964;-73
2023/12/06 04:32:24;;;;;;;;;;;;;;;-144.99;100.00;52672.31;5012079;28;19916;-74
2023/12/06 04:34:53;;;;;;;;;;;;;;;-144.99;100.00;52656.00;5016348;28;19926;-71
2023/12/06 04:37:20;;;;;;;;;;;;;;;-144.99;100.00;52651.94;5008438;28;19931;-71
2023/12/06 04:39:46;;;;;;;;;;;;;;;-144.99;100.00;52678.44;5007490;28;19926;-73
2023/12/06 04:42:14;;;;;;;;;;;;;;;-144.99;100.00;52647.84;4995374;28;20028;-70
2023/12/06 04:44:41;;;;;;;;;;;;;;;-144.99;100.00;52664.16;4999207;28;19993;-73
2023/12/06 04:47:07;;;;;;;;;;;;;;;-144.99;100.00;52635.63;4997774;28;19977;-72
2023/12/06 04:49:34;;;;;;;;;;;;;;;-144.99;100.00;52672.31;5000845;28;19926;-74
2023/12/06 04:52:00;;;;;;;;;;;;;;;-144.99;100.00;52651.94;5012833;22;19979;-77
2023/12/06 04:54:27;;;;;;;;;;;;;;;-144.99;100.00;52696.78;5006920;28;19925;-78
2023/12/06 04:56:53;;;;;;;;;;;;;;;-144.99;100.00;52664.16;5019340;28;19960;-78
2023/12/06 04:59:21;;;;;;;;;;;;;;;-144.99;100.00;52647.84;5025116;28;20088;-78
2023/12/06 05:01:47;;;;;;;;;;;;;;;-144.99;100.00;52660.09;5009370;28;19961;-76
2023/12/06 05:04:14;;;;;;;;;;;;;;;-144.99;100.00;52656.00;5015521;28;19975;-78
2023/12/06 05:06:40;;;;;;;;;;;;;;;-144.99;100.00;52651.94;5004129;28;20032;-74
2023/12/06 05:09:07;;;;;;;;;;;;;;;-144.99;100.00;52631.53;5010043;28;19976;-77
2023/12/06 05:11:34;;;;;;;;;;;;;;;-144.99;100.00;52668.22;5008716;28;20055;-75
2023/12/06 05:14:00;;;;;;;;;;;;;;;-144.99;100.00;52680.47;5012509;28;20023;-78
2023/12/06 05:16:28;;;;;;;;;;;;;;;-144.99;100.00;52664.16;5004036;28;19980;-78
2023/12/06 05:18:55;;;;;;;;;;;;;;;-144.99;100.00;52639.69;5018602;28;20397;-77
2023/12/06 05:21:21;;;;;;;;;;;;;;;-144.99;100.00;52660.09;5014759;28;19929;-76
2023/12/06 05:23:48;;;;;;;;;;;;;;;-144.99;100.00;52668.22;5009190;28;19930;-76
2023/12/06 05:26:14;;;;;;;;;;;;;;;-144.99;100.00;52647.84;5003651;28;19929;-78
2023/12/06 05:28:41;;;;;;;;;;;;;;;-144.99;100.00;52653.97;5009764;28;20422;-76
2023/12/06 05:31:07;;;;;;;;;;;;;;;-144.99;100.00;52619.31;5006563;28;19957;-77
2023/12/06 05:33:35;;;;;;;;;;;;;;;-144.99;100.00;52631.53;5015067;28;19992;-80
2023/12/06 05:36:02;;;;;;;;;;;;;;;-144.99;100.00;52643.78;5020352;28;19925;-79
2023/12/06 05:38:29;;;;;;;;;;;;;;;-144.99;100.00;52635.63;5010493;28;19925;-79
2023/12/06 05:40:55;;;;;;;;;;;;;;;-144.99;100.00;52656.00;5022410;28;19925;-79
2023/12/06 05:43:22;;;;;;;;;;;;;;;-144.99;100.00;52615.25;5020421;28;19929;-79
2023/12/06 05:45:48;;;;;;;;;;;;;;;-144.99;100.00;52668.22;5026439;28;19965;-79
2023/12/06 05:48:14;;;;;;;;;;;;;;;-144.99;100.00;52631.53;5018622;28;19957;-78
2023/12/06 05:50:42;;;;;;;;;;;;;;;-144.99;100.00;52639.69;5010869;28;19931;-76
2023/12/06 05:53:09;;;;;;;;;;;;;;;-144.99;100.00;52623.38;5011679;28;19997;-79
2023/12/06 05:55:35;;;;;;;;;;;;;;;-144.99;100.00;52603.00;5013139;28;19974;-78
2023/12/06 05:58:02;;;;;;;;;;;;;;;-144.99;100.00;52700.84;4998948;28;19925;-78
2023/12/06 06:00:29;;;;;;;;;;;;;;;-144.99;100.00;52647.84;5010071;28;19969;-78
2023/12/06 06:02:58;;;;;;;;;;;;;;;-144.99;100.00;52676.38;5007953;28;19929;-78
2023/12/06 06:05:24;;;;;;;;;;;;;;;-144.99;100.00;52658.03;5015918;28;19993;-79
2023/12/06 06:07:54;;;;;;;;;;;;;;;-144.99;100.00;52647.84;5027682;28;19926;-78
2023/12/06 06:10:20;;;;;;;;;;;;;;;-144.99;100.00;52660.09;5019473;28;19952;-79
2023/12/06 06:12:47;;;;;;;;;;;;;;;-144.99;100.00;52639.69;5019575;28;19941;-78
2023/12/06 06:15:13;;;;;;;;;;;;;;;-144.99;100.00;52651.94;5028031;28;19956;-78
2023/12/06 06:17:40;;;;;;;;;;;;;;;-144.99;100.00;52633.59;5010761;28;19949;-79
2023/12/06 06:20:07;;;;;;;;;;;;;;;-144.99;100.00;52672.31;5015462;28;19953;-76
2023/12/06 06:22:34;;;;;;;;;;;;;;;-144.99;100.00;52656.00;4312271;28;10000731;-77
2023/12/06 06:25:02;;;;;;;;;;;;;;;-144.99;100.00;52635.63;4989360;28;20433;-77
2023/12/06 06:27:28;;;;;;;;;;;;;;;-144.99;100.00;52656.00;5015115;28;20024;-77
2023/12/06 06:29:55;;;;;;;;;;;;;;;-144.99;100.00;52621.34;5013221;28;20028;-77
2023/12/06 06:32:21;;;;;;;;;;;;;;;-144.99;100.00;52619.31;5009171;28;20320;-78
2023/12/06 06:34:48;;;;;;;;;;;;;;;-144.99;100.00;52643.78;5012662;28;20393;-79
2023/12/06 06:37:14;;;;;;;;;;;;;;;-144.99;100.00;52641.72;5008358;28;20356;-78
2023/12/06 06:39:41;;;;;;;;;;;;;;;-144.99;100.00;52656.00;5022305;28;20405;-77
2023/12/06 06:42:08;;;;;;;;;;;;;;;-144.99;100.00;52623.38;5013824;28;20004;-79
2023/12/06 06:44:35;;;;;;;;;;;;;;;-144.99;100.00;52651.94;5025318;28;19930;-80
2023/12/06 06:47:01;;;;;;;;;;;;;;;-144.99;100.00;52623.38;5009984;28;20413;-76
2023/12/06 06:49:28;;;;;;;;;;;;;;;-144.99;100.00;52627.47;5009716;28;19929;-79
2023/12/06 06:51:54;;;;;;;;;;;;;;;-144.99;100.00;52656.00;5013489;28;19968;-79
2023/12/06 06:54:21;;;;;;;;;;;;;;;-144.99;100.00;52621.34;5017959;28;20028;-79
2023/12/06 06:56:47;;;;;;;;;;;;;;;-144.99;100.00;52643.78;5012196;28;20299;-79
2023/12/06 06:59:15;;;;;;;;;;;;;;;-144.99;100.00;52666.19;5010039;28;19929;-79
2023/12/06 07:01:42;;;;;;;;;;;;;;;-144.99;100.00;52645.81;5011287;28;19975;-77
2023/12/06 07:04:08;;;;;;;;;;;;;;;-144.99;100.00;52639.69;5017229;28;20370;-78
2023/12/06 07:06:35;;;;;;;;;;;;;;;-144.99;100.00;52647.84;5013928;28;20032;-78
2023/12/06 07:09:02;;;;;;;;;;;;;;;-144.99;100.00;52651.94;5006739;28;20008;-78
2023/12/06 07:11:29;;;;;;;;;;;;;;;-144.99;100.00;52688.63;5014459;28;20008;-78
2023/12/06 07:13:56;;;;;;;;;;;;;;;-144.99;100.00;52658.03;5013751;28;19965;-79
2023/12/06 07:16:23;;;;;;;;;;;;;;;-144.99;100.00;52658.03;5005506;28;19964;-78
2023/12/06 07:18:51;;;;;;;;;;;;;;;-144.99;100.00;52690.66;5016943;28;19929;-78
2023/12/06 07:21:17;;;;;;;;;;;;;;;-144.99;100.00;52619.31;5009469;28;20219;-76
2023/12/06 07:23:45;;;;;;;;;;;;;;;-144.99;100.00;52664.16;5019330;28;19983;-76
2023/12/06 07:26:11;;;;;;;;;;;;;;;-144.99;100.00;52651.94;5008037;28;19976;-79
2023/12/06 07:28:38;;;;;;;;;;;;;;;-144.99;100.00;52635.63;5020704;28;20438;-79
2023/12/06 07:31:06;;;;;;;;;;;;;;;-144.99;100.00;52664.16;5006078;28;19936;-79
2023/12/06 07:33:35;;;;;;;;;;;;;;;-144.99;100.00;52627.47;5010783;28;20270;-77
2023/12/06 07:36:01;;;;;;;;;;;;;;;-144.99;100.00;52656.00;5011444;28;19975;-79
2023/12/06 07:38:28;;;;;;;;;;;;;;;-144.99;100.00;52676.38;5010263;28;20031;-79
2023/12/06 07:40:54;;;;;;;;;;;;;;;-144.99;100.00;52684.53;5013517;28;19930;-78
2023/12/06 07:43:22;;;;;;;;;;;;;;;-144.99;100.00;52662.13;5011628;28;19926;-77
2023/12/06 07:45:49;;;;;;;;;;;;;;;-144.99;100.00;52668.22;5017649;28;19925;-79
2023/12/06 07:48:17;;;;;;;;;;;;;;;-144.99;100.00;52633.59;5021162;28;19937;-80
2023/12/06 07:50:45;;;;;;;;;;;;;;;-144.99;100.00;52607.09;5037155;28;19913;-80
2023/12/06 07:53:12;;;;;;;;;;;;;;;-144.99;100.00;52704.94;5010662;28;19980;-81
2023/12/06 07:55:39;;;;;;;;;;;;;;;-144.99;100.00;52619.31;5008505;28;19937;-79
2023/12/06 07:58:05;;;;;;;;;;;;;;;-144.99;100.00;52623.38;5003857;28;20327;-78
2023/12/06 08:00:33;;;;;;;;;;;;;;;-144.99;100.00;52647.84;5010010;28;19937;-80
2023/12/06 08:03:00;;;;;;;;;;;;;;;-144.99;100.00;52643.78;5017358;28;19985;-80
2023/12/06 08:05:27;;;;;;;;;;;;;;;-144.99;100.00;52651.94;5031418;28;19921;-80
2023/12/06 08:07:55;;;;;;;;;;;;;;;-144.99;100.00;52668.22;5037615;28;19922;-81
2023/12/06 08:10:22;;;;;;;;;;;;;;;-144.99;100.00;52676.38;5037324;28;19924;-75
2023/12/06 08:12:48;;;;;;;;;;;;;;;-144.99;100.00;52615.25;5025405;28;19925;-79
2023/12/06 08:15:15;;;;;;;;;;;;;;;-144.99;100.00;52635.63;5029233;28;19945;-77
2023/12/06 08:17:42;;;;;;;;;;;;;;;-144.99;100.00;52633.59;5029733;28;19929;-75
2023/12/06 08:20:09;;;;;;;;;;;;;;;-144.99;100.00;52598.94;5028357;28;19940;-78
2023/12/06 08:22:36;;;;;;;;;;;;;;;-144.99;100.00;52660.09;5017926;28;19960;-79
2023/12/06 08:25:06;;;;;;;;;;;;;;;-144.99;100.00;52656.00;5030083;28;20042;-79
2023/12/06 08:27:34;;;;;;;;;;;;;;;-144.99;100.00;52649.88;5036156;28;19949;-78
2023/12/06 08:30:00;;;;;;;;;;;;;;;-144.99;100.00;52629.50;5035384;28;19926;-78
2023/12/06 08:32:27;;;;;;;;;;;;;;;-144.99;100.00;52625.44;5025851;28;19942;-78
2023/12/06 08:34:54;;;;;;;;;;;;;;;-144.99;100.00;52631.53;5025669;28;19925;-77
2023/12/06 08:37:21;;;;;;;;;;;;;;;-144.99;100.00;52668.22;5001848;28;19976;-78
2023/12/06 08:39:49;;;;;;;;;;;;;;;-144.99;100.00;52656.00;5004332;28;19929;-78
2023/12/06 08:42:17;;;;;;;;;;;;;;;-144.99;100.00;52615.25;5019755;28;19987;-79
2023/12/06 08:44:43;;;;;;;;;;;;;;;-144.99;100.00;52643.78;5010056;28;20365;-78
2023/12/06 08:47:10;;;;;;;;;;;;;;;-144.99;100.00;52643.78;5015110;28;19967;-78
2023/12/06 08:49:37;;;;;;;;;;;;;;;-144.99;100.00;52598.94;5015179;28;20028;-77
2023/12/06 08:52:03;;;;;;;;;;;;;;;-144.99;100.00;52623.38;5011320;28;19929;-79
2023/12/06 08:54:30;;;;;;;;;;;;;;;-144.99;100.00;52664.16;5022962;28;19929;-79
2023/12/06 08:56:56;;;;;;;;;;;;;;;-144.99;100.00;52629.50;5017032;28;19929;-79
2023/12/06 08:59:24;;;;;;;;;;;;;;;-144.99;100.00;52627.47;5002551;28;20329;-77
2023/12/06 09:01:50;;;;;;;;;;;;;;;-144.99;100.00;52664.16;5002792;28;19930;-77
2023/12/06 09:04:17;;;;;;;;;;;;;;;-144.99;100.00;52631.53;5016629;28;20359;-79
2023/12/06 09:06:43;;;;;;;;;;;;;;;-144.99;100.00;52656.00;5032615;28;19917;-78
2023/12/06 09:09:11;;;;;;;;;;;;;;;-144.99;100.00;52598.94;5027632;28;19925;-78
2023/12/06 09:11:38;;;;;;;;;;;;;;;-144.99;100.00;52639.69;5006785;28;19926;-78
2023/12/06 09:14:05;;;;;;;;;;;;;;;-144.99;100.00;52651.94;5004733;28;19925;-78
2023/12/06 09:16:32;;;;;;;;;;;;;;;-144.99;100.00;52631.53;5013722;28;19929;-78
2023/12/06 09:18:59;;;;;;;;;;;;;;;-144.99;100.00;52680.47;5010974;28;19929;-80
2023/12/06 09:21:26;;;;;;;;;;;;;;;-144.99;100.00;52623.38;5010014;28;19929;-76
2023/12/06 09:23:53;;;;;;;;;;;;;;;-144.99;100.00;52627.47;5014765;28;20016;-77
2023/12/06 09:26:20;;;;;;;;;;;;;;;-144.99;100.00;52635.63;5009983;28;19929;-78
2023/12/06 09:28:46;;;;;;;;;;;;;;;-144.99;100.00;52668.22;5019917;28;19926;-77
2023/12/06 09:31:13;;;;;;;;;;;;;;;-144.99;100.00;52656.00;5009907;28;20320;-77
2023/12/06 09:33:42;;;;;;;;;;;;;;;-144.99;100.00;52651.94;5006836;28;20052;-78
2023/12/06 09:36:09;;;;;;;;;;;;;;;-144.99;100.00;52658.03;5001412;28;19929;-76
2023/12/06 09:38:36;;;;;;;;;;;;;;;-144.99;100.00;52643.78;5013338;28;20518;-77
2023/12/06 09:41:03;;;;;;;;;;;;;;;-144.99;100.00;52627.47;5009014;28;20024;-80
2023/12/06 09:43:30;;;;;;;;;;;;;;;-144.99;100.00;52639.69;5008519;28;19929;-73
2023/12/06 09:45:56;;;;;;;;;;;;;;;-144.99;100.00;52676.38;5037159;28;19937;-76
2023/12/06 09:48:23;;;;;;;;;;;;;;;-144.99;100.00;52647.84;5022781;28;19930;-74
2023/12/06 09:50:51;;;;;;;;;;;;;;;-144.99;100.00;52635.63;5002527;28;20011;-75
2023/12/06 09:53:17;;;;;;;;;;;;;;;-144.99;100.00;52619.31;4997575;28;19936;-75
2023/12/06 09:55:43;;;;;;;;;;;;;;;-144.99;100.00;52643.78;5003070;28;20617;-75
2023/12/06 09:58:10;;;;;;;;;;;;;;;-144.99;100.00;52631.53;5002503;28;19936;-73
2023/12/06 10:00:36;;;;;;;;;;;;;;;-144.99;100.00;52656.00;5008825;28;20494;-77
2023/12/06 10:03:03;;;;;;;;;;;;;;;-144.99;100.00;52651.94;4998321;28;19925;-75
2023/12/06 10:05:30;;;;;;;;;;;;;;;-144.99;100.00;52639.69;5005928;28;19937;-74
2023/12/06 10:07:57;;;;;;;;;;;;;;;-144.99;100.00;52656.00;5005730;28;20032;-76
2023/12/06 10:10:24;;;;;;;;;;;;;;;-144.99;100.00;52633.59;5012133;28;19936;-75
2023/12/06 10:12:52;;;;;;;;;;;;;;;-144.99;100.00;52672.31;5003697;28;19941;-77
2023/12/06 10:15:19;;;;;;;;;;;;;;;-144.99;100.00;52631.53;5006120;28;19932;-77
2023/12/06 10:17:46;;;;;;;;;;;;;;;-144.99;100.00;52684.53;5007974;28;19967;-76
2023/12/06 10:20:12;;;;;;;;;;;;;;;-144.99;100.00;52603.00;5012897;28;20669;-76
2023/12/06 10:22:39;;;;;;;;;;;;;;;-144.99;100.00;52651.94;5018113;28;19949;-81
2023/12/06 10:25:08;;;;;;;;;;;;;;;-144.99;100.00;52660.09;5036317;28;19940;-79
2023/12/06 10:27:35;;;;;;;;;;;;;;;-144.99;100.00;52696.78;5017493;28;19937;-81
2023/12/06 10:30:03;;;;;;;;;;;;;;;-144.99;100.00;52651.94;5014747;28;19926;-80
2023/12/06 10:32:30;;;;;;;;;;;;;;;-144.99;100.00;52676.38;5022624;28;19913;-79
2023/12/06 10:34:59;;;;;;;;;;;;;;;-144.99;100.00;52656.00;5022567;28;19992;-79
2023/12/06 10:37:26;;;;;;;;;;;;;;;-144.99;100.00;52664.16;5016979;28;19956;-80
2023/12/06 10:39:55;;;;;;;;;;;;;;;-144.99;100.00;52651.94;5025756;28;19971;-80
2023/12/06 10:42:26;;;;;;;;;;;;;;;-144.99;100.00;52611.16;5025090;28;19964;-79
2023/12/06 10:44:54;;;;;;;;;;;;;;;-144.99;100.00;52635.63;5027203;28;19944;-78
2023/12/06 10:47:20;;;;;;;;;;;;;;;-144.99;100.00;52664.16;5016580;28;19926;-80
2023/12/06 10:49:48;;;;;;;;;;;;;;;-144.99;100.00;52627.47;5024224;28;19929;-79
2023/12/06 10:52:15;;;;;;;;;;;;;;;-144.99;100.00;52651.94;5016853;28;19981;-79
2023/12/06 10:54:42;;;;;;;;;;;;;;;-144.99;100.00;52660.09;5016096;28;19975;-76
2023/12/06 10:57:09;;;;;;;;;;;;;;;-144.99;100.00;52611.16;5011668;28;19953;-79
2023/12/06 10:59:38;;;;;;;;;;;;;;;-144.99;100.00;52615.25;5012155;28;20052;-80
2023/12/06 11:02:04;;;;;;;;;;;;;;;-144.99;100.00;52656.00;5028194;28;19926;-80
2023/12/06 11:04:32;;;;;;;;;;;;;;;-144.99;100.00;52658.03;5023171;28;19969;-80
2023/12/06 11:07:04;;;;;;;;;;;;;;;-144.99;100.00;52643.78;5026121;28;19961;-80
2023/12/06 11:09:38;;;;;;;;;;;;;;;-144.99;100.00;52649.88;5018665;28;19984;-79
2023/12/06 11:12:11;;;;;;;;;;;;;;;-144.99;100.00;52623.38;5015157;28;19933;-77
2023/12/06 11:14:47;;;;;;;;;;;;;;;-144.99;100.00;52627.47;5012292;28;20364;-79
2023/12/06 11:17:21;;;;;;;;;;;;;;;-144.99;100.00;52639.69;5006427;28;19929;-80
2023/12/06 11:19:47;;;;;;;;;;;;;;;-144.99;100.00;52668.22;5016740;28;19964;-77
2023/12/06 11:22:14;;;;;;;;;;;;;;;-144.99;100.00;52656.00;5006304;28;20104;-80
2023/12/06 11:24:42;;;;;;;;;;;;;;;-144.99;100.00;52653.97;5023371;28;20314;-78
2023/12/06 11:27:09;;;;;;;;;;;;;;;-144.99;100.00;52629.50;5018400;28;19929;-80
2023/12/06 11:29:35;;;;;;;;;;;;;;;-144.99;100.00;52662.13;5015322;28;20201;-80
2023/12/06 11:32:03;;;;;;;;;;;;;;;-144.99;100.00;52605.03;5009807;28;20031;-80
2023/12/06 11:34:36;;;;;;;;;;;;;;;-144.99;100.00;52688.63;5016483;28;20487;-79
2023/12/06 11:37:06;;;;;;;;;;;;;;;-144.99;100.00;52666.19;5016181;28;20298;-78
2023/12/06 11:39:32;;;;;;;;;;;;;;;-144.99;100.00;52651.94;5002840;28;19971;-78
2023/12/06 11:42:00;;;;;;;;;;;;;;;-144.99;100.00;52647.84;5003726;28;19979;-79
2023/12/06 11:44:26;;;;;;;;;;;;;;;-144.99;100.00;52688.63;5009315;28;19929;-78
2023/12/06 11:46:55;;;;;;;;;;;;;;;-144.99;100.00;52656.00;5015512;28;20024;-76
2023/12/06 11:49:23;;;;;;;;;;;;;;;-144.99;100.00;52688.63;5013634;28;19929;-76
2023/12/06 11:51:54;;;;;;;;;;;;;;;-144.99;100.00;52647.84;5008670;28;20384;-78
2023/12/06 11:54:20;;;;;;;;;;;;;;;-144.99;100.00;52656.00;5015444;28;19932;-80
2023/12/06 11:56:47;;;;;;;;;;;;;;;-144.99;100.00;52662.13;5011424;28;19925;-79
2023/12/06 11:59:13;;;;;;;;;;;;;;;-144.99;100.00;52605.03;5018002;28;19948;-79
2023/12/06 12:01:40;;;;;;;;;;;;;;;-144.99;100.00;52643.78;5006328;28;19929;-79
2023/12/06 12:04:07;;;;;;;;;;;;;;;-144.99;100.00;52639.69;5014548;28;19937;-77
2023/12/06 12:06:35;;;;;;;;;;;;;;;-144.99;100.00;52611.16;5012100;28;20025;-77
2023/12/06 12:09:01;;;;;;;;;;;;;;;-144.99;100.00;52621.34;5004703;28;19975;-79
2023/12/06 12:11:28;;;;;;;;;;;;;;;-144.99;100.00;52639.69;5014748;28;19972;-79
2023/12/06 12:13:54;;;;;;;;;;;;;;;-144.99;100.00;52653.97;5007980;28;19972;-80
2023/12/06 12:16:21;;;;;;;;;;;;;;;-144.99;100.00;52643.78;5020694;28;20417;-82